sensor_id;sensor_type;location;lat;lon;timestamp;P1;durP1;ratioP1;P2;durP2;ratioP2
45322;SDS011;31382;50.200;8.674;2023-02-28T00:03:18;3.22;;;1.77;;
45322;SDS011;31382;50.200;8.674;2023-02-28T00:08:19;1.92;;;1.50;;
45322;SDS011;31382;50.200;8.674;2023-02-28T00:13:21;3.47;;;1.75;;
45322;SDS011;31382;50.200;8.674;2023-02-28T00:18:23;6.18;;;2.53;;
45322;SDS011;31382;50.200;8.674;2023-02-28T00:23:24;2.13;;;1.83;;
45322;SDS011;31382;50.200;8.674;2023-02-28T00:28:26;2.42;;;2.20;;
45322;SDS011;31382;50.200;8.674;2023-02-28T00:33:28;3.90;;;2.33;;
45322;SDS011;31382;50.200;8.674;2023-02-28T00:38:29;6.88;;;2.72;;
45322;SDS011;31382;50.200;8.674;2023-02-28T00:43:31;4.85;;;3.25;;
45322;SDS011;31382;50.200;8.674;2023-02-28T00:48:36;4.45;;;2.90;;
45322;SDS011;31382;50.200;8.674;2023-02-28T00:53:38;5.10;;;2.80;;
45322;SDS011;31382;50.200;8.674;2023-02-28T00:58:39;4.85;;;2.78;;
45322;SDS011;31382;50.200;8.674;2023-02-28T01:03:41;4.75;;;2.65;;
45322;SDS011;31382;50.200;8.674;2023-02-28T01:08:43;3.95;;;2.72;;
45322;SDS011;31382;50.200;8.674;2023-02-28T01:13:45;4.13;;;2.83;;
45322;SDS011;31382;50.200;8.674;2023-02-28T01:18:47;7.45;;;3.45;;
45322;SDS011;31382;50.200;8.674;2023-02-28T01:23:48;6.65;;;2.83;;
45322;SDS011;31382;50.200;8.674;2023-02-28T01:28:51;6.85;;;3.22;;
45322;SDS011;31382;50.200;8.674;2023-02-28T01:33:53;7.85;;;3.70;;
45322;SDS011;31382;50.200;8.674;2023-02-28T01:38:55;5.03;;;3.00;;
45322;SDS011;31382;50.200;8.674;2023-02-28T01:44:07;6.65;;;3.50;;
45322;SDS011;31382;50.200;8.674;2023-02-28T01:54:51;4.95;;;2.75;;
45322;SDS011;31382;50.200;8.674;2023-02-28T01:59:59;3.22;;;2.60;;
45322;SDS011;31382;50.200;8.674;2023-02-28T02:05:15;3.17;;;2.58;;
45322;SDS011;31382;50.200;8.674;2023-02-28T02:10:20;4.13;;;2.53;;
45322;SDS011;31382;50.200;8.674;2023-02-28T02:15:37;7.60;;;3.07;;
45322;SDS011;31382;50.200;8.674;2023-02-28T02:20:58;5.32;;;3.28;;
45322;SDS011;31382;50.200;8.674;2023-02-28T02:26:11;4.07;;;2.55;;
45322;SDS011;31382;50.200;8.674;2023-02-28T02:37:13;4.45;;;3.30;;
45322;SDS011;31382;50.200;8.674;2023-02-28T02:42:35;5.28;;;3.13;;
45322;SDS011;31382;50.200;8.674;2023-02-28T02:47:40;5.05;;;2.80;;
45322;SDS011;31382;50.200;8.674;2023-02-28T02:52:45;5.85;;;3.25;;
45322;SDS011;31382;50.200;8.674;2023-02-28T02:57:53;4.43;;;3.22;;
45322;SDS011;31382;50.200;8.674;2023-02-28T03:02:59;5.60;;;3.17;;
45322;SDS011;31382;50.200;8.674;2023-02-28T03:08:03;4.90;;;3.03;;
45322;SDS011;31382;50.200;8.674;2023-02-28T03:13:54;8.68;;;3.75;;
45322;SDS011;31382;50.200;8.674;2023-02-28T03:29:15;5.07;;;3.13;;
45322;SDS011;31382;50.200;8.674;2023-02-28T03:35:08;7.15;;;3.80;;
45322;SDS011;31382;50.200;8.674;2023-02-28T03:40:01;8.63;;;3.33;;
45322;SDS011;31382;50.200;8.674;2023-02-28T03:45:25;5.90;;;3.08;;
45322;SDS011;31382;50.200;8.674;2023-02-28T03:50:34;8.13;;;3.95;;
45322;SDS011;31382;50.200;8.674;2023-02-28T03:55:41;5.38;;;3.17;;
45322;SDS011;31382;50.200;8.674;2023-02-28T04:00:46;7.25;;;3.63;;
45322;SDS011;31382;50.200;8.674;2023-02-28T04:05:54;7.70;;;3.30;;
45322;SDS011;31382;50.200;8.674;2023-02-28T04:10:59;5.47;;;3.58;;
45322;SDS011;31382;50.200;8.674;2023-02-28T04:16:08;8.73;;;4.40;;
45322;SDS011;31382;50.200;8.674;2023-02-28T04:21:21;5.05;;;3.40;;
45322;SDS011;31382;50.200;8.674;2023-02-28T04:26:23;6.20;;;2.95;;
45322;SDS011;31382;50.200;8.674;2023-02-28T04:31:24;6.07;;;2.95;;
45322;SDS011;31382;50.200;8.674;2023-02-28T04:36:26;5.30;;;3.22;;
45322;SDS011;31382;50.200;8.674;2023-02-28T04:41:28;5.18;;;3.40;;
45322;SDS011;31382;50.200;8.674;2023-02-28T04:46:32;5.75;;;2.90;;
45322;SDS011;31382;50.200;8.674;2023-02-28T04:51:34;5.20;;;2.78;;
45322;SDS011;31382;50.200;8.674;2023-02-28T04:56:35;4.78;;;2.63;;
45322;SDS011;31382;50.200;8.674;2023-02-28T05:01:36;5.03;;;2.88;;
45322;SDS011;31382;50.200;8.674;2023-02-28T05:06:38;6.75;;;2.88;;
45322;SDS011;31382;50.200;8.674;2023-02-28T05:11:40;3.67;;;2.30;;
45322;SDS011;31382;50.200;8.674;2023-02-28T05:16:41;2.28;;;1.75;;
45322;SDS011;31382;50.200;8.674;2023-02-28T05:21:50;5.95;;;2.17;;
45322;SDS011;31382;50.200;8.674;2023-02-28T05:26:53;3.95;;;2.03;;
45322;SDS011;31382;50.200;8.674;2023-02-28T05:31:55;3.72;;;2.42;;
45322;SDS011;31382;50.200;8.674;2023-02-28T05:36:57;5.60;;;3.00;;
45322;SDS011;31382;50.200;8.674;2023-02-28T05:41:58;3.70;;;2.45;;
45322;SDS011;31382;50.200;8.674;2023-02-28T05:46:59;5.13;;;2.53;;
45322;SDS011;31382;50.200;8.674;2023-02-28T05:52:01;4.82;;;2.33;;
45322;SDS011;31382;50.200;8.674;2023-02-28T05:57:02;4.30;;;2.15;;
45322;SDS011;31382;50.200;8.674;2023-02-28T06:02:13;5.60;;;2.47;;
45322;SDS011;31382;50.200;8.674;2023-02-28T06:07:16;4.50;;;2.03;;
45322;SDS011;31382;50.200;8.674;2023-02-28T06:12:18;3.63;;;1.80;;
45322;SDS011;31382;50.200;8.674;2023-02-28T06:17:20;4.43;;;2.90;;
45322;SDS011;31382;50.200;8.674;2023-02-28T06:22:21;4.00;;;3.15;;
45322;SDS011;31382;50.200;8.674;2023-02-28T06:27:23;5.95;;;2.88;;
45322;SDS011;31382;50.200;8.674;2023-02-28T06:32:24;4.60;;;2.92;;
45322;SDS011;31382;50.200;8.674;2023-02-28T06:37:26;4.95;;;2.42;;
45322;SDS011;31382;50.200;8.674;2023-02-28T06:42:27;11.00;;;3.22;;
45322;SDS011;31382;50.200;8.674;2023-02-28T06:47:31;8.18;;;2.72;;
45322;SDS011;31382;50.200;8.674;2023-02-28T06:52:33;3.50;;;2.55;;
45322;SDS011;31382;50.200;8.674;2023-02-28T06:57:37;10.35;;;2.17;;
45322;SDS011;31382;50.200;8.674;2023-02-28T07:02:39;5.72;;;2.30;;
45322;SDS011;31382;50.200;8.674;2023-02-28T07:07:40;4.70;;;2.42;;
45322;SDS011;31382;50.200;8.674;2023-02-28T07:12:44;8.63;;;2.47;;
45322;SDS011;31382;50.200;8.674;2023-02-28T07:17:46;4.45;;;2.90;;
45322;SDS011;31382;50.200;8.674;2023-02-28T07:22:47;4.15;;;2.58;;
45322;SDS011;31382;50.200;8.674;2023-02-28T07:27:56;5.70;;;3.30;;
45322;SDS011;31382;50.200;8.674;2023-02-28T07:32:58;5.93;;;2.95;;
45322;SDS011;31382;50.200;8.674;2023-02-28T07:37:59;5.70;;;3.38;;
45322;SDS011;31382;50.200;8.674;2023-02-28T07:43:02;5.60;;;3.17;;
45322;SDS011;31382;50.200;8.674;2023-02-28T07:48:04;6.50;;;3.30;;
45322;SDS011;31382;50.200;8.674;2023-02-28T07:53:05;7.35;;;3.72;;
45322;SDS011;31382;50.200;8.674;2023-02-28T07:58:07;4.20;;;2.47;;
45322;SDS011;31382;50.200;8.674;2023-02-28T08:03:11;4.68;;;2.90;;
45322;SDS011;31382;50.200;8.674;2023-02-28T08:08:14;9.55;;;2.95;;
45322;SDS011;31382;50.200;8.674;2023-02-28T08:13:16;5.05;;;2.75;;
45322;SDS011;31382;50.200;8.674;2023-02-28T08:18:17;5.40;;;3.10;;
45322;SDS011;31382;50.200;8.674;2023-02-28T08:23:19;4.03;;;2.67;;
45322;SDS011;31382;50.200;8.674;2023-02-28T08:28:20;4.97;;;2.60;;
45322;SDS011;31382;50.200;8.674;2023-02-28T08:33:22;7.75;;;2.75;;
45322;SDS011;31382;50.200;8.674;2023-02-28T08:38:24;3.55;;;2.50;;
45322;SDS011;31382;50.200;8.674;2023-02-28T08:43:27;5.82;;;1.90;;
45322;SDS011;31382;50.200;8.674;2023-02-28T08:48:29;2.40;;;1.60;;
45322;SDS011;31382;50.200;8.674;2023-02-28T08:53:32;3.95;;;2.13;;
45322;SDS011;31382;50.200;8.674;2023-02-28T08:58:34;2.40;;;1.33;;
45322;SDS011;31382;50.200;8.674;2023-02-28T09:03:36;4.75;;;2.10;;
45322;SDS011;31382;50.200;8.674;2023-02-28T09:08:38;4.65;;;2.15;;
45322;SDS011;31382;50.200;8.674;2023-02-28T09:13:40;4.15;;;2.45;;
45322;SDS011;31382;50.200;8.674;2023-02-28T09:18:42;4.82;;;2.42;;
45322;SDS011;31382;50.200;8.674;2023-02-28T09:23:45;4.22;;;1.83;;
45322;SDS011;31382;50.200;8.674;2023-02-28T09:28:48;4.10;;;2.17;;
45322;SDS011;31382;50.200;8.674;2023-02-28T09:33:50;3.92;;;2.10;;
45322;SDS011;31382;50.200;8.674;2023-02-28T09:38:54;3.90;;;2.13;;
45322;SDS011;31382;50.200;8.674;2023-02-28T09:43:56;5.28;;;1.90;;
45322;SDS011;31382;50.200;8.674;2023-02-28T09:49:02;5.75;;;2.13;;
45322;SDS011;31382;50.200;8.674;2023-02-28T09:54:10;6.97;;;2.35;;
45322;SDS011;31382;50.200;8.674;2023-02-28T10:05:00;4.55;;;2.28;;
45322;SDS011;31382;50.200;8.674;2023-02-28T10:10:20;6.40;;;2.78;;
45322;SDS011;31382;50.200;8.674;2023-02-28T10:15:27;3.10;;;2.45;;
45322;SDS011;31382;50.200;8.674;2023-02-28T10:20:32;6.18;;;2.85;;
45322;SDS011;31382;50.200;8.674;2023-02-28T10:25:37;3.85;;;2.50;;
45322;SDS011;31382;50.200;8.674;2023-02-28T10:30:41;4.05;;;2.75;;
45322;SDS011;31382;50.200;8.674;2023-02-28T10:35:46;5.43;;;2.40;;
45322;SDS011;31382;50.200;8.674;2023-02-28T10:40:47;4.18;;;2.50;;
45322;SDS011;31382;50.200;8.674;2023-02-28T10:45:53;3.22;;;2.28;;
45322;SDS011;31382;50.200;8.674;2023-02-28T10:50:57;6.28;;;2.25;;
45322;SDS011;31382;50.200;8.674;2023-02-28T10:56:01;4.60;;;2.72;;
45322;SDS011;31382;50.200;8.674;2023-02-28T11:01:14;3.70;;;2.50;;
45322;SDS011;31382;50.200;8.674;2023-02-28T11:06:19;3.92;;;2.72;;
45322;SDS011;31382;50.200;8.674;2023-02-28T11:11:24;6.90;;;2.95;;
45322;SDS011;31382;50.200;8.674;2023-02-28T11:16:35;4.95;;;2.50;;
45322;SDS011;31382;50.200;8.674;2023-02-28T11:21:38;4.00;;;2.22;;
45322;SDS011;31382;50.200;8.674;2023-02-28T11:26:45;7.80;;;3.20;;
45322;SDS011;31382;50.200;8.674;2023-02-28T11:32:00;4.78;;;2.78;;
45322;SDS011;31382;50.200;8.674;2023-02-28T11:37:05;6.28;;;2.90;;
45322;SDS011;31382;50.200;8.674;2023-02-28T11:53:14;5.95;;;3.08;;
45322;SDS011;31382;50.200;8.674;2023-02-28T11:58:31;4.00;;;2.72;;
45322;SDS011;31382;50.200;8.674;2023-02-28T12:20:34;5.15;;;3.22;;
45322;SDS011;31382;50.200;8.674;2023-02-28T13:51:49;3.97;;;3.03;;
45322;SDS011;31382;50.200;8.674;2023-02-28T14:02:29;4.47;;;3.08;;
45322;SDS011;31382;50.200;8.674;2023-02-28T14:07:48;7.43;;;3.38;;
45322;SDS011;31382;50.200;8.674;2023-02-28T14:17:57;4.28;;;3.50;;
45322;SDS011;31382;50.200;8.674;2023-02-28T14:23:09;6.75;;;3.50;;
45322;SDS011;31382;50.200;8.674;2023-02-28T14:28:55;5.47;;;3.35;;
45322;SDS011;31382;50.200;8.674;2023-02-28T14:39:21;5.68;;;3.72;;
45322;SDS011;31382;50.200;8.674;2023-02-28T14:44:26;6.35;;;4.35;;
45322;SDS011;31382;50.200;8.674;2023-02-28T14:49:41;9.50;;;4.10;;
45322;SDS011;31382;50.200;8.674;2023-02-28T15:10:27;5.70;;;4.25;;
45322;SDS011;31382;50.200;8.674;2023-02-28T15:15:35;10.95;;;4.07;;
45322;SDS011;31382;50.200;8.674;2023-02-28T15:21:05;6.10;;;3.58;;
45322;SDS011;31382;50.200;8.674;2023-02-28T15:26:22;4.72;;;3.22;;
45322;SDS011;31382;50.200;8.674;2023-02-28T15:31:33;5.28;;;3.10;;
45322;SDS011;31382;50.200;8.674;2023-02-28T15:36:56;4.47;;;3.15;;
45322;SDS011;31382;50.200;8.674;2023-02-28T15:42:10;4.65;;;3.45;;
45322;SDS011;31382;50.200;8.674;2023-02-28T15:47:17;5.47;;;3.60;;
45322;SDS011;31382;50.200;8.674;2023-02-28T15:57:50;6.07;;;3.65;;
45322;SDS011;31382;50.200;8.674;2023-02-28T16:02:53;4.47;;;3.60;;
45322;SDS011;31382;50.200;8.674;2023-02-28T16:07:56;6.90;;;3.78;;
45322;SDS011;31382;50.200;8.674;2023-02-28T16:12:59;4.72;;;4.00;;
45322;SDS011;31382;50.200;8.674;2023-02-28T16:18:02;7.40;;;4.20;;
45322;SDS011;31382;50.200;8.674;2023-02-28T16:23:04;7.70;;;3.60;;
45322;SDS011;31382;50.200;8.674;2023-02-28T16:28:24;5.68;;;3.92;;
45322;SDS011;31382;50.200;8.674;2023-02-28T16:33:32;5.10;;;3.90;;
45322;SDS011;31382;50.200;8.674;2023-02-28T16:38:35;8.00;;;4.25;;
45322;SDS011;31382;50.200;8.674;2023-02-28T16:43:37;5.22;;;3.47;;
45322;SDS011;31382;50.200;8.674;2023-02-28T16:48:39;7.82;;;4.53;;
45322;SDS011;31382;50.200;8.674;2023-02-28T16:53:42;8.05;;;4.20;;
45322;SDS011;31382;50.200;8.674;2023-02-28T16:58:44;8.27;;;4.35;;
45322;SDS011;31382;50.200;8.674;2023-02-28T17:03:46;8.45;;;4.65;;
45322;SDS011;31382;50.200;8.674;2023-02-28T17:08:48;8.93;;;4.47;;
45322;SDS011;31382;50.200;8.674;2023-02-28T17:13:50;7.50;;;5.18;;
45322;SDS011;31382;50.200;8.674;2023-02-28T17:18:57;7.85;;;3.65;;
45322;SDS011;31382;50.200;8.674;2023-02-28T17:24:00;6.45;;;4.13;;
45322;SDS011;31382;50.200;8.674;2023-02-28T17:29:01;9.60;;;4.50;;
45322;SDS011;31382;50.200;8.674;2023-02-28T17:34:03;5.82;;;4.10;;
45322;SDS011;31382;50.200;8.674;2023-02-28T17:39:05;9.93;;;3.78;;
45322;SDS011;31382;50.200;8.674;2023-02-28T17:44:13;5.95;;;3.50;;
45322;SDS011;31382;50.200;8.674;2023-02-28T17:49:14;7.70;;;4.13;;
45322;SDS011;31382;50.200;8.674;2023-02-28T17:54:17;7.78;;;4.30;;
45322;SDS011;31382;50.200;8.674;2023-02-28T17:59:19;8.73;;;4.18;;
45322;SDS011;31382;50.200;8.674;2023-02-28T18:04:20;10.63;;;4.70;;
45322;SDS011;31382;50.200;8.674;2023-02-28T18:09:22;8.68;;;4.60;;
45322;SDS011;31382;50.200;8.674;2023-02-28T18:14:24;7.97;;;4.57;;
45322;SDS011;31382;50.200;8.674;2023-02-28T18:19:26;11.13;;;4.55;;
45322;SDS011;31382;50.200;8.674;2023-02-28T18:24:27;7.25;;;4.38;;
45322;SDS011;31382;50.200;8.674;2023-02-28T18:29:29;7.32;;;4.30;;
45322;SDS011;31382;50.200;8.674;2023-02-28T18:34:31;8.68;;;4.75;;
45322;SDS011;31382;50.200;8.674;2023-02-28T18:39:33;8.18;;;4.65;;
45322;SDS011;31382;50.200;8.674;2023-02-28T18:44:35;7.97;;;5.15;;
45322;SDS011;31382;50.200;8.674;2023-02-28T18:49:37;8.82;;;4.82;;
45322;SDS011;31382;50.200;8.674;2023-02-28T18:54:38;7.47;;;4.68;;
45322;SDS011;31382;50.200;8.674;2023-02-28T18:59:40;10.38;;;5.85;;
45322;SDS011;31382;50.200;8.674;2023-02-28T19:04:42;9.32;;;4.82;;
45322;SDS011;31382;50.200;8.674;2023-02-28T19:09:43;7.00;;;4.30;;
45322;SDS011;31382;50.200;8.674;2023-02-28T19:14:44;9.27;;;4.95;;
45322;SDS011;31382;50.200;8.674;2023-02-28T19:19:46;9.23;;;4.43;;
45322;SDS011;31382;50.200;8.674;2023-02-28T19:24:48;9.00;;;5.53;;
45322;SDS011;31382;50.200;8.674;2023-02-28T19:29:51;7.40;;;4.72;;
45322;SDS011;31382;50.200;8.674;2023-02-28T19:34:53;7.20;;;4.28;;
45322;SDS011;31382;50.200;8.674;2023-02-28T19:39:54;12.30;;;5.28;;
45322;SDS011;31382;50.200;8.674;2023-02-28T19:44:57;8.80;;;5.40;;
45322;SDS011;31382;50.200;8.674;2023-02-28T19:49:58;7.70;;;4.72;;
45322;SDS011;31382;50.200;8.674;2023-02-28T19:55:00;9.10;;;5.88;;
45322;SDS011;31382;50.200;8.674;2023-02-28T20:00:01;9.95;;;6.07;;
45322;SDS011;31382;50.200;8.674;2023-02-28T20:05:04;12.00;;;6.38;;
45322;SDS011;31382;50.200;8.674;2023-02-28T20:10:06;9.30;;;5.68;;
45322;SDS011;31382;50.200;8.674;2023-02-28T20:15:08;13.52;;;7.13;;
45322;SDS011;31382;50.200;8.674;2023-02-28T20:20:10;11.23;;;5.93;;
45322;SDS011;31382;50.200;8.674;2023-02-28T20:25:11;13.80;;;5.90;;
45322;SDS011;31382;50.200;8.674;2023-02-28T20:30:13;12.57;;;6.50;;
45322;SDS011;31382;50.200;8.674;2023-02-28T20:35:14;11.10;;;5.80;;
45322;SDS011;31382;50.200;8.674;2023-02-28T20:40:16;12.73;;;6.15;;
45322;SDS011;31382;50.200;8.674;2023-02-28T20:45:18;18.25;;;6.50;;
45322;SDS011;31382;50.200;8.674;2023-02-28T20:50:19;11.45;;;5.53;;
45322;SDS011;31382;50.200;8.674;2023-02-28T20:55:21;10.18;;;5.60;;
45322;SDS011;31382;50.200;8.674;2023-02-28T21:00:23;12.05;;;6.22;;
45322;SDS011;31382;50.200;8.674;2023-02-28T21:05:26;13.40;;;6.60;;
45322;SDS011;31382;50.200;8.674;2023-02-28T21:10:27;9.77;;;6.07;;
45322;SDS011;31382;50.200;8.674;2023-02-28T21:15:29;12.70;;;7.00;;
45322;SDS011;31382;50.200;8.674;2023-02-28T21:20:30;10.73;;;6.47;;
45322;SDS011;31382;50.200;8.674;2023-02-28T21:25:32;11.15;;;6.35;;
45322;SDS011;31382;50.200;8.674;2023-02-28T21:30:35;11.57;;;6.85;;
45322;SDS011;31382;50.200;8.674;2023-02-28T21:35:36;10.48;;;5.82;;
45322;SDS011;31382;50.200;8.674;2023-02-28T21:40:38;10.07;;;6.00;;
45322;SDS011;31382;50.200;8.674;2023-02-28T21:45:39;9.65;;;5.45;;
45322;SDS011;31382;50.200;8.674;2023-02-28T21:50:40;9.93;;;6.25;;
45322;SDS011;31382;50.200;8.674;2023-02-28T21:55:42;14.73;;;6.43;;
45322;SDS011;31382;50.200;8.674;2023-02-28T22:00:43;10.88;;;6.18;;
45322;SDS011;31382;50.200;8.674;2023-02-28T22:05:46;12.80;;;6.78;;
45322;SDS011;31382;50.200;8.674;2023-02-28T22:10:47;14.35;;;8.10;;
45322;SDS011;31382;50.200;8.674;2023-02-28T22:15:49;14.90;;;7.07;;
45322;SDS011;31382;50.200;8.674;2023-02-28T22:20:54;14.52;;;6.95;;
45322;SDS011;31382;50.200;8.674;2023-02-28T22:25:55;14.95;;;6.90;;
45322;SDS011;31382;50.200;8.674;2023-02-28T22:31:00;13.35;;;7.10;;
45322;SDS011;31382;50.200;8.674;2023-02-28T22:36:13;14.43;;;7.03;;
45322;SDS011;31382;50.200;8.674;2023-02-28T22:41:20;13.43;;;7.15;;
45322;SDS011;31382;50.200;8.674;2023-02-28T22:46:23;15.57;;;7.72;;
45322;SDS011;31382;50.200;8.674;2023-02-28T22:51:26;12.40;;;6.13;;
45322;SDS011;31382;50.200;8.674;2023-02-28T22:56:29;12.93;;;7.22;;
45322;SDS011;31382;50.200;8.674;2023-02-28T23:01:31;14.73;;;7.40;;
45322;SDS011;31382;50.200;8.674;2023-02-28T23:06:35;13.65;;;7.07;;
45322;SDS011;31382;50.200;8.674;2023-02-28T23:11:42;13.82;;;6.93;;
45322;SDS011;31382;50.200;8.674;2023-02-28T23:16:50;11.30;;;6.72;;
45322;SDS011;31382;50.200;8.674;2023-02-28T23:21:56;14.35;;;7.00;;
45322;SDS011;31382;50.200;8.674;2023-02-28T23:27:00;10.10;;;5.90;;
45322;SDS011;31382;50.200;8.674;2023-02-28T23:32:04;12.80;;;7.70;;
45322;SDS011;31382;50.200;8.674;2023-02-28T23:37:06;13.93;;;7.38;;
45322;SDS011;31382;50.200;8.674;2023-02-28T23:42:07;13.55;;;6.78;;
45322;SDS011;31382;50.200;8.674;2023-02-28T23:47:09;12.32;;;7.22;;
45322;SDS011;31382;50.200;8.674;2023-02-28T23:52:13;14.45;;;6.85;;
45322;SDS011;31382;50.200;8.674;2023-02-28T23:57:14;13.48;;;7.18;;
